createdAt,value
2019-03-13T00:00:41.511Z,93.90
2019-03-13T00:03:10.126Z,93.30
2019-03-13T00:05:38.630Z,93.50
2019-03-13T00:08:07.138Z,93.80
2019-03-13T00:10:35.765Z,93.20
2019-03-13T00:13:04.272Z,93.50
2019-03-13T00:15:32.717Z,93.60
2019-03-13T00:18:01.144Z,93.90
2019-03-13T00:20:29.613Z,93.60
2019-03-13T00:22:58.112Z,93.90
2019-03-13T00:25:26.562Z,93.90
2019-03-13T00:27:55.064Z,93.90
2019-03-13T00:30:23.526Z,94.10
2019-03-13T00:32:52.013Z,93.70
2019-03-13T00:35:20.471Z,93.60
2019-03-13T00:37:48.909Z,93.60
2019-03-13T00:40:17.360Z,93.40
2019-03-13T00:42:45.790Z,92.00
2019-03-13T00:45:15.224Z,92.10
2019-03-13T00:47:43.659Z,91.70
2019-03-13T00:50:23.351Z,91.60
2019-03-13T00:52:51.787Z,91.20
2019-03-13T00:55:20.260Z,90.40
2019-03-13T00:57:48.702Z,90.50
2019-03-13T01:00:18.784Z,90.30
2019-03-13T01:02:48.856Z,90.00
2019-03-13T01:05:18.947Z,89.40
2019-03-13T01:07:47.391Z,89.10
2019-03-13T01:10:15.923Z,89.20
2019-03-13T01:12:44.368Z,90.00
2019-03-13T01:15:12.939Z,90.00
2019-03-13T01:17:41.382Z,89.80
2019-03-13T01:20:10.056Z,90.00
2019-03-13T01:22:38.521Z,89.80
2019-03-13T01:25:09.685Z,90.10
2019-03-13T01:27:38.150Z,90.10
2019-03-13T01:30:10.374Z,90.40
2019-03-13T01:32:46.298Z,90.50
2019-03-13T01:35:16.440Z,90.50
2019-03-13T01:37:44.883Z,90.90
2019-03-13T01:40:13.555Z,93.40
2019-03-13T01:42:42.014Z,97.00
2019-03-13T01:45:11.092Z,99.40
2019-03-13T01:47:39.549Z,99.90
2019-03-13T01:50:10.425Z,99.90
2019-03-13T01:52:38.942Z,99.90
2019-03-13T01:55:09.115Z,99.90
2019-03-13T01:57:37.597Z,99.90
2019-03-13T02:00:09.494Z,99.90
2019-03-13T02:02:37.947Z,99.90
2019-03-13T02:05:06.726Z,99.90
2019-03-13T02:07:35.182Z,99.90
2019-03-13T02:10:04.579Z,99.90
2019-03-13T02:12:33.031Z,99.90
2019-03-13T02:15:01.463Z,99.90
2019-03-13T02:17:29.925Z,99.90
2019-03-13T02:19:58.353Z,99.90
2019-03-13T02:22:26.795Z,99.90
2019-03-13T02:24:55.227Z,99.90
2019-03-13T02:27:23.734Z,99.90
2019-03-13T02:29:52.175Z,99.90
2019-03-13T02:32:20.632Z,99.90
2019-03-13T02:34:49.067Z,99.90
2019-03-13T02:37:17.510Z,99.90
2019-03-13T02:39:45.952Z,99.90
2019-03-13T02:42:14.398Z,99.90
2019-03-13T02:44:42.832Z,99.90
2019-03-13T02:47:11.276Z,99.90
2019-03-13T02:49:39.712Z,99.90
2019-03-13T02:52:08.178Z,99.90
2019-03-13T02:54:36.686Z,99.90
2019-03-13T02:57:05.268Z,99.90
2019-03-13T02:59:33.718Z,99.90
2019-03-13T03:02:03.820Z,99.90
2019-03-13T03:04:32.298Z,99.90
2019-03-13T03:07:00.751Z,99.90
2019-03-13T03:09:29.187Z,99.90
2019-03-13T03:11:57.649Z,99.90
2019-03-13T03:14:26.132Z,99.90
2019-03-13T03:16:54.600Z,99.90
2019-03-13T03:19:23.093Z,99.90
2019-03-13T03:21:51.602Z,99.90
2019-03-13T03:24:20.051Z,99.90
2019-03-13T03:26:48.562Z,99.90
2019-03-13T03:29:17.010Z,99.90
2019-03-13T03:31:45.516Z,99.90
2019-03-13T03:34:13.985Z,99.90
2019-03-13T03:36:42.495Z,99.90
2019-03-13T03:39:10.939Z,99.90
2019-03-13T03:41:39.455Z,99.90
2019-03-13T03:44:07.923Z,99.90
2019-03-13T03:46:36.415Z,99.90
2019-03-13T03:49:04.866Z,99.90
2019-03-13T03:51:33.304Z,99.90
2019-03-13T03:54:01.819Z,99.90
2019-03-13T03:56:30.258Z,99.90
2019-03-13T03:58:58.719Z,99.90
2019-03-13T04:01:27.319Z,99.90
2019-03-13T04:03:55.764Z,99.90
2019-03-13T04:06:24.637Z,99.90
2019-03-13T04:08:53.094Z,99.90
2019-03-13T04:11:21.533Z,99.90
2019-03-13T04:13:50.000Z,99.90
2019-03-13T04:16:18.507Z,99.90
2019-03-13T04:18:46.962Z,99.90
2019-03-13T04:21:15.409Z,99.90
2019-03-13T04:23:43.877Z,99.90
2019-03-13T04:26:13.157Z,99.90
2019-03-13T04:28:41.920Z,99.90
2019-03-13T04:31:10.362Z,99.90
2019-03-13T04:33:38.812Z,99.90
2019-03-13T04:36:07.258Z,99.90
2019-03-13T04:38:35.776Z,99.90
2019-03-13T04:41:04.240Z,99.90
2019-03-13T04:43:32.755Z,99.90
2019-03-13T04:46:01.199Z,99.90
2019-03-13T04:48:29.715Z,99.90
2019-03-13T04:50:58.150Z,99.90
2019-03-13T04:53:26.611Z,99.90
2019-03-13T04:55:55.035Z,99.90
2019-03-13T04:58:23.501Z,99.90
2019-03-13T05:00:51.948Z,99.90
2019-03-13T05:03:20.453Z,99.90
2019-03-13T05:05:50.327Z,99.90
2019-03-13T05:08:27.704Z,99.90
2019-03-13T05:10:56.133Z,99.90
2019-03-13T05:13:24.582Z,99.90
2019-03-13T05:15:53.020Z,99.90
2019-03-13T05:18:21.451Z,99.90
2019-03-13T05:20:49.916Z,99.90
2019-03-13T05:23:18.350Z,99.90
2019-03-13T05:25:46.815Z,99.90
2019-03-13T05:28:15.261Z,99.90
2019-03-13T05:30:43.713Z,99.90
2019-03-13T05:33:12.163Z,99.90
2019-03-13T05:35:40.614Z,99.90
2019-03-13T05:38:09.043Z,99.90
2019-03-13T05:40:37.498Z,99.90
2019-03-13T05:43:05.916Z,99.90
2019-03-13T05:45:34.371Z,99.90
2019-03-13T05:48:02.823Z,99.90
2019-03-13T05:50:31.745Z,99.90
2019-03-13T05:53:00.290Z,99.90
2019-03-13T05:55:28.746Z,99.90
2019-03-13T05:57:57.170Z,99.90
2019-03-13T06:00:26.807Z,99.90
2019-03-13T06:02:55.243Z,99.90
2019-03-13T06:05:23.753Z,99.90
2019-03-13T06:07:52.238Z,99.90
2019-03-13T06:10:20.703Z,99.90
2019-03-13T06:12:49.153Z,99.90
2019-03-13T06:15:17.596Z,99.90
2019-03-13T06:17:46.039Z,99.90
2019-03-13T06:20:15.929Z,99.90
2019-03-13T06:22:44.380Z,99.90
2019-03-13T06:25:16.331Z,99.90
2019-03-13T06:27:46.317Z,99.90
2019-03-13T06:30:21.604Z,99.90
2019-03-13T06:32:50.068Z,99.90
2019-03-13T06:35:18.512Z,99.90
2019-03-13T06:37:47.034Z,99.90
2019-03-13T06:40:20.680Z,99.90
2019-03-13T06:42:49.138Z,99.90
2019-03-13T06:45:17.728Z,99.90
2019-03-13T06:47:46.228Z,99.90
2019-03-13T06:50:24.583Z,99.90
2019-03-13T06:52:53.046Z,99.90
2019-03-13T06:55:21.493Z,99.90
2019-03-13T06:57:49.913Z,99.90
2019-03-13T07:00:30.515Z,99.90
2019-03-13T07:03:00.662Z,99.90
2019-03-13T07:05:36.746Z,99.90
2019-03-13T07:08:18.482Z,99.90
2019-03-13T07:10:51.249Z,99.90
2019-03-13T07:13:30.298Z,99.90
2019-03-13T07:16:03.318Z,99.90
2019-03-13T07:18:42.082Z,99.90
2019-03-13T07:21:28.415Z,99.90
2019-03-13T07:24:10.191Z,99.90
2019-03-13T07:26:43.176Z,99.90
2019-03-13T07:29:18.928Z,99.90
2019-03-13T07:31:49.011Z,99.90
2019-03-13T07:34:19.115Z,99.90
2019-03-13T07:36:54.977Z,99.90
2019-03-13T07:39:30.796Z,99.90
2019-03-13T07:42:06.583Z,99.90
2019-03-13T07:44:39.603Z,99.90
2019-03-13T07:47:29.065Z,99.90
2019-03-13T07:49:57.876Z,99.90
2019-03-13T07:52:32.707Z,99.90
2019-03-13T07:55:02.749Z,99.90
2019-03-13T07:57:38.952Z,99.90
2019-03-13T08:00:29.727Z,99.90
2019-03-13T08:03:16.199Z,99.90
2019-03-13T08:06:02.615Z,99.90
2019-03-13T08:08:48.974Z,99.90
2019-03-13T08:11:36.623Z,99.90
2019-03-13T08:14:24.553Z,99.90
2019-03-13T08:16:54.650Z,99.90
2019-03-13T08:19:24.736Z,99.90
2019-03-13T08:22:13.005Z,99.90
2019-03-13T08:24:45.483Z,99.90
2019-03-13T08:27:24.395Z,99.90
2019-03-13T08:29:54.478Z,99.90
2019-03-13T08:32:33.129Z,99.90
2019-03-13T08:35:15.238Z,99.90
2019-03-13T08:37:45.336Z,99.90
2019-03-13T08:40:21.664Z,99.90
2019-03-13T08:42:51.753Z,99.90
2019-03-13T08:45:38.050Z,99.90
2019-03-13T08:48:08.166Z,99.90
2019-03-13T08:50:43.987Z,99.90
2019-03-13T08:53:30.311Z,99.90
2019-03-13T08:56:12.432Z,99.90
2019-03-13T08:58:45.295Z,99.90
2019-03-13T09:01:24.229Z,99.90
2019-03-13T09:03:54.411Z,99.90
2019-03-13T09:06:33.229Z,99.90
2019-03-13T09:09:21.188Z,99.90
2019-03-13T09:11:51.263Z,99.90
2019-03-13T09:14:26.978Z,99.90
2019-03-13T09:17:15.051Z,99.90
2019-03-13T09:19:56.922Z,99.90
2019-03-13T09:22:27.015Z,99.90
2019-03-13T09:25:12.746Z,99.90
2019-03-13T09:27:54.956Z,99.90
2019-03-13T09:30:40.139Z,99.90
2019-03-13T09:33:15.669Z,99.90
2019-03-13T09:35:45.734Z,99.90
2019-03-13T09:38:24.594Z,99.90
2019-03-13T09:41:06.717Z,99.90
2019-03-13T09:43:39.357Z,99.90
2019-03-13T09:46:12.378Z,99.90
2019-03-13T09:48:42.471Z,99.90
2019-03-13T09:51:20.950Z,99.90
2019-03-13T09:53:56.747Z,99.90
2019-03-13T09:56:29.493Z,99.90
2019-03-13T09:59:15.890Z,99.90
2019-03-13T10:01:51.441Z,99.90
2019-03-13T10:04:36.332Z,99.90
2019-03-13T10:07:11.950Z,99.90
2019-03-13T10:09:44.736Z,99.60
2019-03-13T10:12:20.724Z,99.40
2019-03-13T10:14:53.737Z,99.70
2019-03-13T10:17:26.763Z,99.90
2019-03-13T10:19:56.848Z,99.90
2019-03-13T10:22:26.928Z,99.90
2019-03-13T10:25:00.110Z,99.50
2019-03-13T10:27:33.083Z,99.50
2019-03-13T10:30:18.018Z,98.60
2019-03-13T10:32:48.100Z,98.10
2019-03-13T10:35:36.331Z,98.20
2019-03-13T10:38:22.440Z,98.10
2019-03-13T10:41:10.643Z,98.10
2019-03-13T10:43:43.653Z,98.40
2019-03-13T10:46:29.895Z,98.40
2019-03-13T10:49:05.623Z,97.50
2019-03-13T10:51:38.395Z,97.10
2019-03-13T10:54:14.199Z,96.30
2019-03-13T10:56:55.703Z,96.20
2019-03-13T10:59:34.863Z,95.80
2019-03-13T11:02:04.944Z,95.10
2019-03-13T11:04:49.813Z,95.40
2019-03-13T11:07:20.824Z,94.70
2019-03-13T11:09:56.838Z,94.40
2019-03-13T11:12:29.559Z,94.60
2019-03-13T11:15:02.598Z,94.60
2019-03-13T11:17:38.711Z,93.90
2019-03-13T11:20:26.509Z,94.20
2019-03-13T11:23:14.441Z,94.20
2019-03-13T11:25:44.600Z,94.30
2019-03-13T11:28:26.545Z,94.50
2019-03-13T11:31:11.465Z,93.30
2019-03-13T11:33:47.143Z,91.50
2019-03-13T11:36:22.997Z,91.40
2019-03-13T11:38:53.090Z,92.50
2019-03-13T11:41:39.456Z,93.00
2019-03-13T11:44:25.658Z,93.40
2019-03-13T11:46:55.734Z,93.60
2019-03-13T11:49:25.810Z,94.30
2019-03-13T11:52:11.926Z,93.70
2019-03-13T11:54:57.080Z,94.10
2019-03-13T11:57:32.843Z,94.60
2019-03-13T12:00:05.827Z,94.30
2019-03-13T12:02:41.724Z,94.70
2019-03-13T12:05:29.578Z,95.00
2019-03-13T12:08:02.602Z,96.00
2019-03-13T12:10:32.707Z,96.90
2019-03-13T12:13:11.753Z,96.80
2019-03-13T12:15:50.528Z,96.90
2019-03-13T12:18:23.529Z,96.70
2019-03-13T12:21:09.598Z,97.00
2019-03-13T12:23:45.714Z,97.00
2019-03-13T12:26:24.641Z,97.40
2019-03-13T12:29:09.777Z,97.20
2019-03-13T12:31:48.793Z,97.30
2019-03-13T12:34:35.212Z,97.40
2019-03-13T12:37:05.302Z,97.50
2019-03-13T12:39:44.086Z,97.40
2019-03-13T12:42:25.834Z,97.30
2019-03-13T12:45:10.951Z,97.60
2019-03-13T12:47:41.075Z,97.20
2019-03-13T12:50:15.358Z,97.10
2019-03-13T12:52:57.513Z,97.30
2019-03-13T12:55:33.293Z,97.70
2019-03-13T12:58:06.094Z,98.00
2019-03-13T13:00:45.253Z,98.00
2019-03-13T13:03:15.407Z,98.30
2019-03-13T13:05:45.571Z,98.60
2019-03-13T13:08:15.725Z,98.50
2019-03-13T13:10:48.758Z,98.40
2019-03-13T13:13:27.888Z,98.30
2019-03-13T13:16:15.770Z,98.60
2019-03-13T13:18:52.343Z,99.10
2019-03-13T13:21:20.926Z,99.00
2019-03-13T13:23:49.821Z,99.00
2019-03-13T13:26:18.252Z,98.90
2019-03-13T13:28:46.774Z,98.80
2019-03-13T13:31:15.212Z,98.90
2019-03-13T13:33:43.673Z,98.80
2019-03-13T13:36:12.246Z,99.10
2019-03-13T13:38:40.779Z,98.70
2019-03-13T13:41:09.213Z,99.00
2019-03-13T13:43:37.672Z,98.90
2019-03-13T13:46:12.048Z,98.80
2019-03-13T13:48:40.508Z,98.70
2019-03-13T13:51:08.950Z,98.70
2019-03-13T13:53:37.391Z,98.60
2019-03-13T13:56:05.856Z,98.80
2019-03-13T13:58:34.296Z,99.10
2019-03-13T14:01:02.750Z,99.00
2019-03-13T14:03:31.202Z,98.80
2019-03-13T14:05:59.648Z,98.90
2019-03-13T14:08:28.083Z,99.10
2019-03-13T14:10:56.547Z,99.00
2019-03-13T14:13:24.973Z,99.00
2019-03-13T14:15:53.427Z,99.00
2019-03-13T14:18:21.866Z,99.20
2019-03-13T14:20:50.321Z,99.40
2019-03-13T14:23:18.768Z,99.30
2019-03-13T14:25:47.236Z,99.40
2019-03-13T14:28:15.746Z,99.50
2019-03-13T14:30:44.290Z,99.20
2019-03-13T14:33:12.798Z,99.20
2019-03-13T14:35:41.241Z,99.30
2019-03-13T14:38:09.710Z,99.60
2019-03-13T14:40:38.163Z,99.40
2019-03-13T14:43:06.599Z,99.50
2019-03-13T14:45:35.062Z,99.40
2019-03-13T14:48:03.497Z,99.20
2019-03-13T14:50:31.950Z,99.30
2019-03-13T14:53:00.402Z,99.10
2019-03-13T14:55:28.843Z,99.30
2019-03-13T14:57:57.279Z,99.30
2019-03-13T15:00:26.287Z,99.40
2019-03-13T15:02:54.788Z,99.30
2019-03-13T15:05:23.239Z,99.20
2019-03-13T15:07:51.668Z,99.40
2019-03-13T15:10:20.942Z,99.60
2019-03-13T15:12:49.484Z,99.30
2019-03-13T15:15:22.071Z,99.60
2019-03-13T15:17:53.130Z,99.70
2019-03-13T15:20:22.962Z,99.30
2019-03-13T15:22:51.393Z,99.30
2019-03-13T15:25:19.933Z,99.40
2019-03-13T15:27:48.429Z,99.60
2019-03-13T15:30:19.106Z,99.30
2019-03-13T15:32:47.580Z,99.40
2019-03-13T15:35:16.073Z,99.70
2019-03-13T15:37:44.516Z,99.70
2019-03-13T15:40:17.458Z,99.90
2019-03-13T15:42:46.840Z,99.90
2019-03-13T15:45:20.553Z,99.60
2019-03-13T15:47:48.979Z,99.80
2019-03-13T15:50:17.508Z,99.70
2019-03-13T15:52:46.015Z,99.50
2019-03-13T15:55:18.218Z,99.80
2019-03-13T15:57:46.794Z,99.90
2019-03-13T16:00:21.019Z,99.90
2019-03-13T16:02:49.523Z,99.80
2019-03-13T16:05:17.988Z,99.70
2019-03-13T16:07:46.435Z,99.80
2019-03-13T16:10:16.137Z,99.80
2019-03-13T16:12:44.839Z,99.90
2019-03-13T16:15:25.643Z,99.90
2019-03-13T16:17:54.163Z,99.90
2019-03-13T16:20:22.693Z,99.90
2019-03-13T16:22:52.787Z,99.90
2019-03-13T16:25:21.318Z,99.90
2019-03-13T16:27:49.770Z,99.90
2019-03-13T16:30:22.111Z,99.90
2019-03-13T16:32:50.552Z,99.90
2019-03-13T16:35:19.083Z,99.90
2019-03-13T16:37:47.592Z,99.90
2019-03-13T16:40:18.162Z,99.90
2019-03-13T16:42:46.606Z,99.90
2019-03-13T16:45:16.990Z,99.90
2019-03-13T16:47:45.473Z,99.90
2019-03-13T16:50:22.596Z,99.90
2019-03-13T16:52:51.925Z,99.90
2019-03-13T16:55:21.029Z,99.90
2019-03-13T16:57:49.468Z,99.90
2019-03-13T17:00:31.152Z,99.90
2019-03-13T17:02:59.749Z,99.90
2019-03-13T17:05:28.197Z,99.90
2019-03-13T17:07:56.638Z,99.90
2019-03-13T17:10:26.243Z,99.90
2019-03-13T17:12:54.765Z,99.90
2019-03-13T17:15:23.933Z,99.90
2019-03-13T17:17:53.132Z,99.90
2019-03-13T17:20:30.183Z,99.90
2019-03-13T17:22:58.649Z,99.90
2019-03-13T17:25:27.094Z,99.90
2019-03-13T17:27:55.547Z,99.90
2019-03-13T17:30:30.460Z,99.90
2019-03-13T17:32:59.349Z,99.90
2019-03-13T17:35:27.790Z,99.90
2019-03-13T17:37:56.277Z,99.90
2019-03-13T17:40:25.859Z,99.90
2019-03-13T17:42:54.455Z,99.90
2019-03-13T17:45:23.833Z,99.90
2019-03-13T17:47:52.615Z,99.90
2019-03-13T17:50:24.286Z,99.90
2019-03-13T17:52:52.813Z,99.90
2019-03-13T17:55:24.765Z,99.90
2019-03-13T17:57:53.273Z,99.90
2019-03-13T18:00:28.194Z,99.90
2019-03-13T18:02:56.722Z,99.90
2019-03-13T18:05:25.226Z,99.90
2019-03-13T18:07:53.681Z,99.90
2019-03-13T18:10:22.123Z,99.90
2019-03-13T18:12:50.566Z,99.90
2019-03-13T18:15:19.005Z,99.90
2019-03-13T18:17:47.455Z,99.90
2019-03-13T18:20:22.530Z,99.90
2019-03-13T18:22:50.977Z,99.90
2019-03-13T18:25:19.483Z,99.90
2019-03-13T18:27:48.020Z,99.90
2019-03-13T18:30:21.407Z,99.90
2019-03-13T18:32:49.879Z,99.90
2019-03-13T18:35:19.038Z,99.90
2019-03-13T18:37:47.559Z,99.90
2019-03-13T18:40:18.517Z,99.90
2019-03-13T18:42:47.420Z,99.90
2019-03-13T18:45:18.922Z,99.90
2019-03-13T18:47:47.374Z,99.90
2019-03-13T18:50:16.941Z,99.90
2019-03-13T18:52:45.482Z,99.90
2019-03-13T18:55:16.286Z,99.90
2019-03-13T18:57:44.749Z,99.90
2019-03-13T19:00:33.353Z,99.90
2019-03-13T19:03:02.109Z,99.90
2019-03-13T19:05:32.296Z,99.90
2019-03-13T19:08:00.775Z,99.90
2019-03-13T19:10:32.744Z,99.90
2019-03-13T19:13:01.267Z,99.90
2019-03-13T19:15:30.360Z,99.90
2019-03-13T19:18:00.781Z,99.90
2019-03-13T19:20:31.840Z,99.90
2019-03-13T19:23:00.497Z,99.90
2019-03-13T19:25:28.930Z,99.90
2019-03-13T19:27:57.396Z,99.90
2019-03-13T19:30:33.646Z,99.90
2019-03-13T19:33:02.259Z,99.90
2019-03-13T19:35:31.014Z,99.90
2019-03-13T19:38:08.083Z,99.90
2019-03-13T19:40:36.521Z,99.90
2019-03-13T19:43:05.043Z,99.90
2019-03-13T19:45:36.573Z,99.90
2019-03-13T19:48:05.178Z,99.90
2019-03-13T19:50:33.662Z,99.90
2019-03-13T19:53:02.178Z,99.90
2019-03-13T19:55:30.626Z,99.90
2019-03-13T19:57:59.081Z,99.90
2019-03-13T20:00:27.994Z,99.90
2019-03-13T20:03:00.208Z,99.90
2019-03-13T20:05:29.132Z,99.90
2019-03-13T20:07:57.596Z,99.90
2019-03-13T20:10:29.684Z,99.90
2019-03-13T20:12:58.137Z,99.90
2019-03-13T20:15:29.087Z,99.90
2019-03-13T20:17:57.609Z,99.90
2019-03-13T20:20:26.145Z,99.90
2019-03-13T20:22:57.543Z,99.90
2019-03-13T20:25:26.084Z,99.90
2019-03-13T20:27:55.149Z,99.90
2019-03-13T20:30:24.204Z,99.90
2019-03-13T20:32:53.106Z,99.90
2019-03-13T20:35:21.574Z,99.90
2019-03-13T20:37:50.042Z,99.90
2019-03-13T20:40:20.384Z,99.90
2019-03-13T20:42:48.913Z,99.90
2019-03-13T20:45:20.419Z,99.90
2019-03-13T20:47:48.879Z,99.90
2019-03-13T20:50:17.381Z,99.90
2019-03-13T20:52:46.010Z,99.90
2019-03-13T20:55:18.564Z,99.90
2019-03-13T20:57:47.159Z,99.90
2019-03-13T21:00:19.355Z,99.90
2019-03-13T21:02:48.010Z,99.90
2019-03-13T21:05:16.508Z,99.90
2019-03-13T21:07:44.971Z,99.90
2019-03-13T21:10:13.651Z,99.90
2019-03-13T21:12:42.113Z,99.90
2019-03-13T21:15:25.224Z,99.90
2019-03-13T21:17:53.847Z,99.90
2019-03-13T21:20:22.720Z,99.90
2019-03-13T21:22:51.239Z,99.90
2019-03-13T21:25:23.410Z,99.90
2019-03-13T21:27:51.867Z,99.90
2019-03-13T21:30:26.113Z,99.90
2019-03-13T21:32:54.641Z,99.90
2019-03-13T21:35:23.255Z,99.90
2019-03-13T21:37:51.716Z,99.90
2019-03-13T21:40:21.702Z,99.90
2019-03-13T21:42:50.148Z,99.90
2019-03-13T21:45:22.737Z,99.90
2019-03-13T21:47:48.886Z,99.90
2019-03-13T21:50:18.247Z,99.90
2019-03-13T21:52:46.720Z,99.90
2019-03-13T21:55:16.094Z,99.90
2019-03-13T21:57:44.560Z,99.90
2019-03-13T22:00:18.751Z,99.90
2019-03-13T22:02:47.207Z,99.90
2019-03-13T22:05:25.082Z,99.90
2019-03-13T22:07:45.909Z,99.90
2019-03-13T22:10:15.826Z,99.90
2019-03-13T22:12:45.236Z,99.90
2019-03-13T22:15:18.267Z,99.90
2019-03-13T22:17:46.881Z,99.90
2019-03-13T22:20:16.233Z,99.90
2019-03-13T22:22:44.678Z,99.90
2019-03-13T22:25:14.553Z,99.90
2019-03-13T22:27:42.987Z,99.90
2019-03-13T22:30:14.875Z,99.90
2019-03-13T22:32:43.319Z,99.90
2019-03-13T22:35:11.764Z,99.90
2019-03-13T22:37:40.200Z,99.90
2019-03-13T22:40:11.254Z,99.90
2019-03-13T22:42:39.682Z,99.90
2019-03-13T22:45:11.211Z,99.90
2019-03-13T22:47:43.104Z,99.90
2019-03-13T22:50:17.993Z,99.90
2019-03-13T22:52:46.440Z,99.90
2019-03-13T22:55:15.094Z,99.90
2019-03-13T22:57:43.566Z,99.90
2019-03-13T23:00:28.572Z,99.90
2019-03-13T23:02:57.059Z,99.90
2019-03-13T23:05:25.518Z,99.90
2019-03-13T23:07:53.953Z,99.90
2019-03-13T23:10:33.482Z,99.90
2019-03-13T23:13:01.921Z,99.90
2019-03-13T23:15:30.366Z,99.90
2019-03-13T23:17:58.796Z,99.90
2019-03-13T23:20:27.260Z,99.90
2019-03-13T23:22:55.685Z,99.90
2019-03-13T23:25:24.139Z,99.90
2019-03-13T23:27:52.573Z,99.90
2019-03-13T23:30:21.023Z,99.90
2019-03-13T23:32:49.461Z,99.90
2019-03-13T23:35:17.908Z,99.90
2019-03-13T23:37:46.343Z,99.90
2019-03-13T23:40:14.797Z,99.90
2019-03-13T23:42:43.217Z,99.90
2019-03-13T23:45:11.914Z,99.90
2019-03-13T23:47:40.352Z,99.90
2019-03-13T23:50:10.635Z,99.90
2019-03-13T23:52:39.075Z,99.90
2019-03-13T23:55:07.874Z,99.90
2019-03-13T23:57:36.304Z,99.90
